sensor_id;sensor_type;location;lat;lon;timestamp;temperature;humidity
25170;DHT22;13129;48.012;10.352;2023-03-12T04:31:10;1.50;99.90
25170;DHT22;13129;48.012;10.352;2023-03-12T04:33:38;1.50;99.90
25170;DHT22;13129;48.012;10.352;2023-03-12T04:36:04;1.40;99.90
25170;DHT22;13129;48.012;10.352;2023-03-12T04:38:30;1.40;99.90
25170;DHT22;13129;48.012;10.352;2023-03-12T04:41:00;1.40;99.90
25170;DHT22;13129;48.012;10.352;2023-03-12T04:43:27;1.40;99.90
25170;DHT22;13129;48.012;10.352;2023-03-12T04:45:56;1.40;99.90
25170;DHT22;13129;48.012;10.352;2023-03-12T04:48:22;1.50;99.90
25170;DHT22;13129;48.012;10.352;2023-03-12T04:50:48;1.40;99.90
25170;DHT22;13129;48.012;10.352;2023-03-12T04:53:14;1.40;99.90
25170;DHT22;13129;48.012;10.352;2023-03-12T04:55:40;1.40;99.90
25170;DHT22;13129;48.012;10.352;2023-03-12T04:58:06;1.50;99.90
25170;DHT22;13129;48.012;10.352;2023-03-12T05:00:31;1.40;99.90
25170;DHT22;13129;48.012;10.352;2023-03-12T05:02:57;1.50;99.90
25170;DHT22;13129;48.012;10.352;2023-03-12T05:05:23;1.50;99.90
25170;DHT22;13129;48.012;10.352;2023-03-12T05:07:48;1.50;99.90
25170;DHT22;13129;48.012;10.352;2023-03-12T05:10:14;1.50;99.90
25170;DHT22;13129;48.012;10.352;2023-03-12T05:12:40;1.40;99.90
25170;DHT22;13129;48.012;10.352;2023-03-12T05:15:06;1.40;99.90
25170;DHT22;13129;48.012;10.352;2023-03-12T05:17:31;1.50;99.90
25170;DHT22;13129;48.012;10.352;2023-03-12T05:19:57;1.50;99.90
25170;DHT22;13129;48.012;10.352;2023-03-12T05:22:23;1.50;99.90
25170;DHT22;13129;48.012;10.352;2023-03-12T05:24:49;1.60;99.90
25170;DHT22;13129;48.012;10.352;2023-03-12T05:27:15;1.60;99.90
25170;DHT22;13129;48.012;10.352;2023-03-12T05:29:40;1.70;99.90
25170;DHT22;13129;48.012;10.352;2023-03-12T05:32:06;1.70;99.90
25170;DHT22;13129;48.012;10.352;2023-03-12T05:34:32;1.70;99.90
25170;DHT22;13129;48.012;10.352;2023-03-12T05:36:58;1.80;99.90
25170;DHT22;13129;48.012;10.352;2023-03-12T05:39:25;1.70;99.90
25170;DHT22;13129;48.012;10.352;2023-03-12T05:41:50;1.80;99.90
25170;DHT22;13129;48.012;10.352;2023-03-12T05:44:18;1.90;99.90
25170;DHT22;13129;48.012;10.352;2023-03-12T05:46:44;1.90;99.90
25170;DHT22;13129;48.012;10.352;2023-03-12T05:49:10;1.90;99.90
25170;DHT22;13129;48.012;10.352;2023-03-12T05:51:36;1.90;99.90
25170;DHT22;13129;48.012;10.352;2023-03-12T05:54:02;1.90;99.90
25170;DHT22;13129;48.012;10.352;2023-03-12T05:56:28;1.90;99.90
25170;DHT22;13129;48.012;10.352;2023-03-12T05:58:54;2.00;99.90
25170;DHT22;13129;48.012;10.352;2023-03-12T06:01:25;1.90;99.90
25170;DHT22;13129;48.012;10.352;2023-03-12T06:03:51;2.00;99.90
25170;DHT22;13129;48.012;10.352;2023-03-12T06:06:17;2.00;99.90
25170;DHT22;13129;48.012;10.352;2023-03-12T06:08:43;2.00;99.90
25170;DHT22;13129;48.012;10.352;2023-03-12T06:11:09;2.10;99.90
25170;DHT22;13129;48.012;10.352;2023-03-12T06:13:35;2.00;99.90
25170;DHT22;13129;48.012;10.352;2023-03-12T06:16:10;2.10;99.90
25170;DHT22;13129;48.012;10.352;2023-03-12T06:18:36;2.10;99.90
25170;DHT22;13129;48.012;10.352;2023-03-12T06:23:34;2.20;99.90
25170;DHT22;13129;48.012;10.352;2023-03-12T06:26:00;2.30;99.90
25170;DHT22;13129;48.012;10.352;2023-03-12T06:28:26;2.40;99.90
25170;DHT22;13129;48.012;10.352;2023-03-12T06:30:55;2.40;99.90
25170;DHT22;13129;48.012;10.352;2023-03-12T06:33:20;2.40;99.90
25170;DHT22;13129;48.012;10.352;2023-03-12T06:35:46;2.40;99.90
25170;DHT22;13129;48.012;10.352;2023-03-12T06:38:12;2.60;99.90
25170;DHT22;13129;48.012;10.352;2023-03-12T06:40:38;2.60;99.90
25170;DHT22;13129;48.012;10.352;2023-03-12T06:43:04;2.70;99.90
25170;DHT22;13129;48.012;10.352;2023-03-12T06:45:29;2.70;99.90
25170;DHT22;13129;48.012;10.352;2023-03-12T06:47:55;2.80;99.90
25170;DHT22;13129;48.012;10.352;2023-03-12T06:50:21;2.80;99.90
25170;DHT22;13129;48.012;10.352;2023-03-12T06:52:46;2.90;99.90
25170;DHT22;13129;48.012;10.352;2023-03-12T06:55:12;2.90;99.90
25170;DHT22;13129;48.012;10.352;2023-03-12T06:57:37;3.00;99.90
25170;DHT22;13129;48.012;10.352;2023-03-12T07:00:04;3.00;99.90
25170;DHT22;13129;48.012;10.352;2023-03-12T07:02:30;3.10;99.90
25170;DHT22;13129;48.012;10.352;2023-03-12T07:04:55;3.10;99.90
25170;DHT22;13129;48.012;10.352;2023-03-12T07:07:21;3.10;99.90
25170;DHT22;13129;48.012;10.352;2023-03-12T07:09:46;3.10;99.90
25170;DHT22;13129;48.012;10.352;2023-03-12T07:12:12;3.20;99.90
25170;DHT22;13129;48.012;10.352;2023-03-12T07:14:38;3.20;99.90
25170;DHT22;13129;48.012;10.352;2023-03-12T07:17:03;3.10;99.90
25170;DHT22;13129;48.012;10.352;2023-03-12T07:19:29;3.20;99.90
25170;DHT22;13129;48.012;10.352;2023-03-12T07:21:55;3.30;99.90
25170;DHT22;13129;48.012;10.352;2023-03-12T07:24:21;3.50;99.90
25170;DHT22;13129;48.012;10.352;2023-03-12T07:26:47;3.60;99.90
25170;DHT22;13129;48.012;10.352;2023-03-12T07:29:13;3.70;99.90
25170;DHT22;13129;48.012;10.352;2023-03-12T07:31:38;3.90;99.90
25170;DHT22;13129;48.012;10.352;2023-03-12T07:34:04;3.90;99.90
25170;DHT22;13129;48.012;10.352;2023-03-12T07:36:31;3.80;99.90
25170;DHT22;13129;48.012;10.352;2023-03-12T07:38:56;3.80;99.90
25170;DHT22;13129;48.012;10.352;2023-03-12T07:41:22;3.80;99.90
25170;DHT22;13129;48.012;10.352;2023-03-12T07:43:48;3.80;99.90
25170;DHT22;13129;48.012;10.352;2023-03-12T07:46:14;3.70;99.90
25170;DHT22;13129;48.012;10.352;2023-03-12T07:48:40;3.70;99.90
25170;DHT22;13129;48.012;10.352;2023-03-12T07:51:06;3.70;99.90
25170;DHT22;13129;48.012;10.352;2023-03-12T07:53:32;3.60;99.90
25170;DHT22;13129;48.012;10.352;2023-03-12T07:55:57;3.70;99.90
25170;DHT22;13129;48.012;10.352;2023-03-12T07:58:23;3.70;99.90
25170;DHT22;13129;48.012;10.352;2023-03-12T08:00:48;3.70;99.90
25170;DHT22;13129;48.012;10.352;2023-03-12T08:03:14;3.80;99.90
25170;DHT22;13129;48.012;10.352;2023-03-12T08:05:41;3.80;99.90
25170;DHT22;13129;48.012;10.352;2023-03-12T08:08:07;3.90;99.90
25170;DHT22;13129;48.012;10.352;2023-03-12T08:10:32;3.90;99.90
25170;DHT22;13129;48.012;10.352;2023-03-12T08:12:58;4.10;99.90
25170;DHT22;13129;48.012;10.352;2023-03-12T08:15:24;4.40;99.90
25170;DHT22;13129;48.012;10.352;2023-03-12T08:17:50;4.40;99.90
25170;DHT22;13129;48.012;10.352;2023-03-12T08:20:15;4.50;99.90
25170;DHT22;13129;48.012;10.352;2023-03-12T08:22:42;4.60;99.90
25170;DHT22;13129;48.012;10.352;2023-03-12T08:25:08;4.70;99.90
25170;DHT22;13129;48.012;10.352;2023-03-12T08:27:34;4.80;99.90
25170;DHT22;13129;48.012;10.352;2023-03-12T08:30:00;4.90;99.90
25170;DHT22;13129;48.012;10.352;2023-03-12T08:32:26;4.90;99.90
25170;DHT22;13129;48.012;10.352;2023-03-12T08:34:51;5.00;99.90
25170;DHT22;13129;48.012;10.352;2023-03-12T08:37:17;5.00;99.90
25170;DHT22;13129;48.012;10.352;2023-03-12T08:39:43;5.10;99.90
25170;DHT22;13129;48.012;10.352;2023-03-12T08:42:08;5.10;99.90
25170;DHT22;13129;48.012;10.352;2023-03-12T08:44:34;5.20;99.90
25170;DHT22;13129;48.012;10.352;2023-03-12T08:47:00;5.20;99.90
25170;DHT22;13129;48.012;10.352;2023-03-12T08:49:25;5.20;99.90
25170;DHT22;13129;48.012;10.352;2023-03-12T08:51:51;5.20;99.90
25170;DHT22;13129;48.012;10.352;2023-03-12T08:54:19;5.30;99.90
25170;DHT22;13129;48.012;10.352;2023-03-12T08:56:50;5.40;99.90
25170;DHT22;13129;48.012;10.352;2023-03-12T08:59:16;5.50;99.90
25170;DHT22;13129;48.012;10.352;2023-03-12T09:01:43;5.90;99.90
25170;DHT22;13129;48.012;10.352;2023-03-12T09:04:08;6.40;99.90
25170;DHT22;13129;48.012;10.352;2023-03-12T09:06:34;6.80;99.90
25170;DHT22;13129;48.012;10.352;2023-03-12T09:09:00;7.00;99.90
25170;DHT22;13129;48.012;10.352;2023-03-12T09:11:30;7.30;99.90
25170;DHT22;13129;48.012;10.352;2023-03-12T09:13:57;7.50;99.90
25170;DHT22;13129;48.012;10.352;2023-03-12T09:16:37;7.70;99.90
25170;DHT22;13129;48.012;10.352;2023-03-12T09:19:15;8.10;99.90
25170;DHT22;13129;48.012;10.352;2023-03-12T09:21:41;8.20;99.90
25170;DHT22;13129;48.012;10.352;2023-03-12T09:24:07;8.10;99.90
25170;DHT22;13129;48.012;10.352;2023-03-12T09:26:35;8.10;99.90
25170;DHT22;13129;48.012;10.352;2023-03-12T09:29:04;8.40;99.90
25170;DHT22;13129;48.012;10.352;2023-03-12T09:31:30;8.50;99.90
25170;DHT22;13129;48.012;10.352;2023-03-12T09:33:55;8.30;99.90
25170;DHT22;13129;48.012;10.352;2023-03-12T10:47:59;9.20;99.90
25170;DHT22;13129;48.012;10.352;2023-03-12T10:50:31;9.10;99.90
25170;DHT22;13129;48.012;10.352;2023-03-12T10:53:20;9.00;99.90
25170;DHT22;13129;48.012;10.352;2023-03-12T10:58:44;8.70;99.90
25170;DHT22;13129;48.012;10.352;2023-03-12T11:01:21;8.60;99.90
25170;DHT22;13129;48.012;10.352;2023-03-12T11:03:48;8.70;99.90
25170;DHT22;13129;48.012;10.352;2023-03-12T11:09:19;9.20;99.90
25170;DHT22;13129;48.012;10.352;2023-03-12T11:11:46;9.30;99.90
25170;DHT22;13129;48.012;10.352;2023-03-12T11:16:43;9.00;99.90
25170;DHT22;13129;48.012;10.352;2023-03-12T11:19:12;8.90;99.90
25170;DHT22;13129;48.012;10.352;2023-03-12T11:21:39;9.10;99.90
25170;DHT22;13129;48.012;10.352;2023-03-12T11:24:10;9.30;99.90
25170;DHT22;13129;48.012;10.352;2023-03-12T11:26:43;9.40;99.90
25170;DHT22;13129;48.012;10.352;2023-03-12T11:29:35;9.40;99.90
25170;DHT22;13129;48.012;10.352;2023-03-12T11:34:53;9.00;99.90
25170;DHT22;13129;48.012;10.352;2023-03-12T11:43:16;8.80;99.90
25170;DHT22;13129;48.012;10.352;2023-03-12T11:51:23;9.00;99.90
25170;DHT22;13129;48.012;10.352;2023-03-12T11:56:45;9.10;99.90
25170;DHT22;13129;48.012;10.352;2023-03-12T11:59:32;9.40;99.90
25170;DHT22;13129;48.012;10.352;2023-03-12T12:02:21;9.80;99.90
25170;DHT22;13129;48.012;10.352;2023-03-12T12:27:30;10.30;99.90
25170;DHT22;13129;48.012;10.352;2023-03-12T12:30:39;10.30;99.90
25170;DHT22;13129;48.012;10.352;2023-03-12T12:35:47;10.10;99.90
25170;DHT22;13129;48.012;10.352;2023-03-12T12:38:30;10.10;99.90
25170;DHT22;13129;48.012;10.352;2023-03-12T12:43:37;9.80;99.90
25170;DHT22;13129;48.012;10.352;2023-03-12T12:46:17;10.00;99.90
25170;DHT22;13129;48.012;10.352;2023-03-12T12:49:06;10.20;99.90
25170;DHT22;13129;48.012;10.352;2023-03-12T12:51:38;10.30;99.90
25170;DHT22;13129;48.012;10.352;2023-03-12T12:57:37;10.60;99.90
25170;DHT22;13129;48.012;10.352;2023-03-12T13:00:31;10.80;99.90
25170;DHT22;13129;48.012;10.352;2023-03-12T13:02:59;10.90;99.90
25170;DHT22;13129;48.012;10.352;2023-03-12T13:08:00;10.90;99.90
25170;DHT22;13129;48.012;10.352;2023-03-12T13:13:11;11.10;99.90
25170;DHT22;13129;48.012;10.352;2023-03-12T13:15:41;11.40;99.90
25170;DHT22;13129;48.012;10.352;2023-03-12T13:18:54;11.50;99.90
25170;DHT22;13129;48.012;10.352;2023-03-12T13:22:09;11.80;99.90
25170;DHT22;13129;48.012;10.352;2023-03-12T13:27:21;12.40;99.90
25170;DHT22;13129;48.012;10.352;2023-03-12T13:29:47;12.40;99.90
25170;DHT22;13129;48.012;10.352;2023-03-12T13:45:39;11.70;99.90
25170;DHT22;13129;48.012;10.352;2023-03-12T13:48:14;11.50;99.90
25170;DHT22;13129;48.012;10.352;2023-03-12T13:51:00;11.50;99.90
25170;DHT22;13129;48.012;10.352;2023-03-12T13:53:35;11.30;99.90
25170;DHT22;13129;48.012;10.352;2023-03-12T13:56:31;11.20;99.90
25170;DHT22;13129;48.012;10.352;2023-03-12T13:59:06;11.10;99.90
25170;DHT22;13129;48.012;10.352;2023-03-12T14:01:41;10.90;99.90
25170;DHT22;13129;48.012;10.352;2023-03-12T14:04:13;10.70;99.90
25170;DHT22;13129;48.012;10.352;2023-03-12T14:10:18;10.20;99.90
25170;DHT22;13129;48.012;10.352;2023-03-12T14:18:24;9.90;99.90
25170;DHT22;13129;48.012;10.352;2023-03-12T14:20:57;9.90;99.90
25170;DHT22;13129;48.012;10.352;2023-03-12T14:23:35;10.00;99.90
25170;DHT22;13129;48.012;10.352;2023-03-12T14:26:03;10.00;99.90
25170;DHT22;13129;48.012;10.352;2023-03-12T14:28:31;10.10;99.90
25170;DHT22;13129;48.012;10.352;2023-03-12T14:31:05;10.10;99.90
25170;DHT22;13129;48.012;10.352;2023-03-12T14:34:00;10.10;99.90
25170;DHT22;13129;48.012;10.352;2023-03-12T14:36:45;10.00;99.90
25170;DHT22;13129;48.012;10.352;2023-03-12T14:42:23;10.00;99.90
25170;DHT22;13129;48.012;10.352;2023-03-12T14:47:28;9.90;99.90
25170;DHT22;13129;48.012;10.352;2023-03-12T14:49:56;9.80;99.90
25170;DHT22;13129;48.012;10.352;2023-03-12T14:52:25;9.60;99.90
25170;DHT22;13129;48.012;10.352;2023-03-12T14:55:10;9.50;99.90
25170;DHT22;13129;48.012;10.352;2023-03-12T14:57:36;9.40;99.90
25170;DHT22;13129;48.012;10.352;2023-03-12T15:00:02;9.30;99.90
25170;DHT22;13129;48.012;10.352;2023-03-12T15:02:30;9.30;99.90
25170;DHT22;13129;48.012;10.352;2023-03-12T15:04:59;9.30;99.90
25170;DHT22;13129;48.012;10.352;2023-03-12T15:07:31;9.20;99.90
25170;DHT22;13129;48.012;10.352;2023-03-12T15:09:57;9.30;99.90
25170;DHT22;13129;48.012;10.352;2023-03-12T15:12:34;9.20;99.90
25170;DHT22;13129;48.012;10.352;2023-03-12T15:15:08;9.10;99.90
25170;DHT22;13129;48.012;10.352;2023-03-12T15:17:35;8.90;99.90
25170;DHT22;13129;48.012;10.352;2023-03-12T15:20:05;8.80;99.90
25170;DHT22;13129;48.012;10.352;2023-03-12T15:22:35;8.70;99.90
25170;DHT22;13129;48.012;10.352;2023-03-12T15:25:24;8.60;99.90
25170;DHT22;13129;48.012;10.352;2023-03-12T15:28:27;8.70;99.90
25170;DHT22;13129;48.012;10.352;2023-03-12T15:31:15;8.90;99.90
25170;DHT22;13129;48.012;10.352;2023-03-12T15:33:42;9.00;99.90
25170;DHT22;13129;48.012;10.352;2023-03-12T15:41:31;9.40;99.90
25170;DHT22;13129;48.012;10.352;2023-03-12T15:44:00;9.40;99.90
25170;DHT22;13129;48.012;10.352;2023-03-12T15:46:26;9.50;99.90
25170;DHT22;13129;48.012;10.352;2023-03-12T15:48:55;9.50;99.90
25170;DHT22;13129;48.012;10.352;2023-03-12T15:51:33;9.60;99.90
25170;DHT22;13129;48.012;10.352;2023-03-12T15:54:22;9.60;99.90
25170;DHT22;13129;48.012;10.352;2023-03-12T15:56:48;9.50;99.90
25170;DHT22;13129;48.012;10.352;2023-03-12T15:59:24;9.40;99.90
25170;DHT22;13129;48.012;10.352;2023-03-12T16:01:55;9.30;99.90
25170;DHT22;13129;48.012;10.352;2023-03-12T16:04:22;9.20;99.90
25170;DHT22;13129;48.012;10.352;2023-03-12T16:06:49;9.20;99.90
25170;DHT22;13129;48.012;10.352;2023-03-12T16:09:21;9.00;99.90
25170;DHT22;13129;48.012;10.352;2023-03-12T16:11:49;8.80;99.90
25170;DHT22;13129;48.012;10.352;2023-03-12T16:14:26;8.70;99.90
25170;DHT22;13129;48.012;10.352;2023-03-12T16:16:53;8.60;99.90
25170;DHT22;13129;48.012;10.352;2023-03-12T16:19:21;8.50;99.90
25170;DHT22;13129;48.012;10.352;2023-03-12T16:21:46;8.40;99.90
25170;DHT22;13129;48.012;10.352;2023-03-12T16:24:13;8.40;99.90
25170;DHT22;13129;48.012;10.352;2023-03-12T16:26:53;8.30;99.90
25170;DHT22;13129;48.012;10.352;2023-03-12T16:29:20;8.20;99.90
25170;DHT22;13129;48.012;10.352;2023-03-12T16:31:53;8.20;99.90
25170;DHT22;13129;48.012;10.352;2023-03-12T16:34:19;8.10;99.90
25170;DHT22;13129;48.012;10.352;2023-03-12T16:36:45;8.00;99.90
25170;DHT22;13129;48.012;10.352;2023-03-12T16:39:10;8.00;99.90
25170;DHT22;13129;48.012;10.352;2023-03-12T16:41:37;8.00;99.90
25170;DHT22;13129;48.012;10.352;2023-03-12T16:44:05;7.90;99.90
25170;DHT22;13129;48.012;10.352;2023-03-12T16:46:32;7.90;99.90
25170;DHT22;13129;48.012;10.352;2023-03-12T16:48:59;7.80;99.90
25170;DHT22;13129;48.012;10.352;2023-03-12T16:51:26;7.80;99.90
25170;DHT22;13129;48.012;10.352;2023-03-12T16:53:53;7.80;99.90
25170;DHT22;13129;48.012;10.352;2023-03-12T16:56:23;7.70;99.90
25170;DHT22;13129;48.012;10.352;2023-03-12T16:58:50;7.70;99.90
25170;DHT22;13129;48.012;10.352;2023-03-12T17:01:18;7.60;99.90
25170;DHT22;13129;48.012;10.352;2023-03-12T17:03:45;7.50;99.90
25170;DHT22;13129;48.012;10.352;2023-03-12T17:06:17;7.40;99.90
25170;DHT22;13129;48.012;10.352;2023-03-12T17:08:42;7.40;99.90
25170;DHT22;13129;48.012;10.352;2023-03-12T17:11:29;7.30;99.90
25170;DHT22;13129;48.012;10.352;2023-03-12T17:14:00;7.20;99.90
25170;DHT22;13129;48.012;10.352;2023-03-12T17:16:27;7.10;99.90
25170;DHT22;13129;48.012;10.352;2023-03-12T17:18:52;7.10;99.90
25170;DHT22;13129;48.012;10.352;2023-03-12T17:21:18;7.00;99.90
25170;DHT22;13129;48.012;10.352;2023-03-12T17:23:46;6.90;99.90
25170;DHT22;13129;48.012;10.352;2023-03-12T17:26:12;6.90;99.90
25170;DHT22;13129;48.012;10.352;2023-03-12T17:28:38;6.80;99.90
25170;DHT22;13129;48.012;10.352;2023-03-12T17:31:04;6.80;99.90
25170;DHT22;13129;48.012;10.352;2023-03-12T17:33:30;6.70;99.90
25170;DHT22;13129;48.012;10.352;2023-03-12T17:36:01;6.70;99.90
25170;DHT22;13129;48.012;10.352;2023-03-12T17:38:30;6.70;99.90
25170;DHT22;13129;48.012;10.352;2023-03-12T17:40:56;6.60;99.90
25170;DHT22;13129;48.012;10.352;2023-03-12T17:43:22;6.60;99.90
25170;DHT22;13129;48.012;10.352;2023-03-12T17:45:48;6.50;99.90
25170;DHT22;13129;48.012;10.352;2023-03-12T17:48:14;6.50;99.90
25170;DHT22;13129;48.012;10.352;2023-03-12T17:50:40;6.50;99.90
25170;DHT22;13129;48.012;10.352;2023-03-12T17:53:06;6.50;99.90
25170;DHT22;13129;48.012;10.352;2023-03-12T17:55:34;6.50;99.90
25170;DHT22;13129;48.012;10.352;2023-03-12T17:58:00;6.40;99.90
25170;DHT22;13129;48.012;10.352;2023-03-12T18:00:28;6.40;99.90
25170;DHT22;13129;48.012;10.352;2023-03-12T18:02:54;6.40;99.90
25170;DHT22;13129;48.012;10.352;2023-03-12T18:05:20;6.40;99.90
25170;DHT22;13129;48.012;10.352;2023-03-12T18:07:47;6.40;99.90
25170;DHT22;13129;48.012;10.352;2023-03-12T18:10:16;6.40;99.90
25170;DHT22;13129;48.012;10.352;2023-03-12T18:12:42;6.40;99.90
25170;DHT22;13129;48.012;10.352;2023-03-12T18:15:12;6.40;99.90
25170;DHT22;13129;48.012;10.352;2023-03-12T18:17:44;6.40;99.90
25170;DHT22;13129;48.012;10.352;2023-03-12T18:20:11;6.30;99.90
25170;DHT22;13129;48.012;10.352;2023-03-12T18:22:40;6.40;99.90
25170;DHT22;13129;48.012;10.352;2023-03-12T18:25:06;6.40;99.90
25170;DHT22;13129;48.012;10.352;2023-03-12T18:27:32;6.40;99.90
25170;DHT22;13129;48.012;10.352;2023-03-12T18:29:58;6.40;99.90
25170;DHT22;13129;48.012;10.352;2023-03-12T18:32:24;6.40;99.90
25170;DHT22;13129;48.012;10.352;2023-03-12T18:34:49;6.50;99.90
25170;DHT22;13129;48.012;10.352;2023-03-12T18:37:18;6.60;99.90
25170;DHT22;13129;48.012;10.352;2023-03-12T18:39:43;6.50;99.90
25170;DHT22;13129;48.012;10.352;2023-03-12T18:42:10;6.50;99.90
25170;DHT22;13129;48.012;10.352;2023-03-12T18:44:36;6.50;99.90
25170;DHT22;13129;48.012;10.352;2023-03-12T18:47:01;6.40;99.90
25170;DHT22;13129;48.012;10.352;2023-03-12T18:49:27;6.40;99.90
25170;DHT22;13129;48.012;10.352;2023-03-12T18:51:53;6.40;99.90
25170;DHT22;13129;48.012;10.352;2023-03-12T18:54:21;6.40;99.90
25170;DHT22;13129;48.012;10.352;2023-03-12T18:56:47;6.40;99.90
25170;DHT22;13129;48.012;10.352;2023-03-12T18:59:13;6.30;99.90
25170;DHT22;13129;48.012;10.352;2023-03-12T19:01:40;6.30;99.90
25170;DHT22;13129;48.012;10.352;2023-03-12T19:04:09;6.30;99.90
25170;DHT22;13129;48.012;10.352;2023-03-12T19:06:38;6.30;99.90
25170;DHT22;13129;48.012;10.352;2023-03-12T19:09:03;6.30;99.90
25170;DHT22;13129;48.012;10.352;2023-03-12T19:11:29;6.30;99.90
25170;DHT22;13129;48.012;10.352;2023-03-12T19:13:55;6.20;99.90
25170;DHT22;13129;48.012;10.352;2023-03-12T19:16:21;6.20;99.90
25170;DHT22;13129;48.012;10.352;2023-03-12T19:18:49;6.20;99.90
25170;DHT22;13129;48.012;10.352;2023-03-12T19:21:16;6.20;99.90
25170;DHT22;13129;48.012;10.352;2023-03-12T19:23:42;6.20;99.90
25170;DHT22;13129;48.012;10.352;2023-03-12T19:26:07;6.30;99.90
25170;DHT22;13129;48.012;10.352;2023-03-12T19:28:33;6.20;99.90
25170;DHT22;13129;48.012;10.352;2023-03-12T19:31:00;6.20;99.90
25170;DHT22;13129;48.012;10.352;2023-03-12T19:33:26;6.20;99.90
25170;DHT22;13129;48.012;10.352;2023-03-12T19:35:53;6.20;99.90
25170;DHT22;13129;48.012;10.352;2023-03-12T19:38:18;6.10;99.90
25170;DHT22;13129;48.012;10.352;2023-03-12T19:40:52;6.10;99.90
25170;DHT22;13129;48.012;10.352;2023-03-12T19:43:18;6.10;99.90
25170;DHT22;13129;48.012;10.352;2023-03-12T19:45:44;6.10;99.90
25170;DHT22;13129;48.012;10.352;2023-03-12T19:48:11;6.10;99.90
25170;DHT22;13129;48.012;10.352;2023-03-12T19:50:40;6.00;99.90
25170;DHT22;13129;48.012;10.352;2023-03-12T19:53:07;6.10;99.90
25170;DHT22;13129;48.012;10.352;2023-03-12T19:55:34;6.10;99.90
25170;DHT22;13129;48.012;10.352;2023-03-12T19:58:00;6.10;99.90
25170;DHT22;13129;48.012;10.352;2023-03-12T20:00:29;6.10;99.90
25170;DHT22;13129;48.012;10.352;2023-03-12T20:02:55;6.10;99.90
25170;DHT22;13129;48.012;10.352;2023-03-12T20:05:21;6.10;99.90
25170;DHT22;13129;48.012;10.352;2023-03-12T20:07:46;6.20;99.90
25170;DHT22;13129;48.012;10.352;2023-03-12T20:10:13;6.10;99.90
25170;DHT22;13129;48.012;10.352;2023-03-12T20:12:39;6.10;99.90
25170;DHT22;13129;48.012;10.352;2023-03-12T20:15:06;6.10;99.90
25170;DHT22;13129;48.012;10.352;2023-03-12T20:17:32;6.10;99.90
25170;DHT22;13129;48.012;10.352;2023-03-12T20:19:57;6.10;99.90
25170;DHT22;13129;48.012;10.352;2023-03-12T20:22:23;6.20;99.90
25170;DHT22;13129;48.012;10.352;2023-03-12T20:24:53;6.20;99.90
25170;DHT22;13129;48.012;10.352;2023-03-12T20:27:19;6.20;99.90
25170;DHT22;13129;48.012;10.352;2023-03-12T20:29:45;6.20;99.90
25170;DHT22;13129;48.012;10.352;2023-03-12T20:32:12;6.20;99.90
25170;DHT22;13129;48.012;10.352;2023-03-12T20:34:37;6.30;99.90
25170;DHT22;13129;48.012;10.352;2023-03-12T20:37:03;6.40;99.90
25170;DHT22;13129;48.012;10.352;2023-03-12T20:39:29;6.40;99.90
25170;DHT22;13129;48.012;10.352;2023-03-12T20:41:54;6.40;99.90
25170;DHT22;13129;48.012;10.352;2023-03-12T20:44:20;6.40;99.90
25170;DHT22;13129;48.012;10.352;2023-03-12T20:46:46;6.50;99.90
25170;DHT22;13129;48.012;10.352;2023-03-12T20:49:12;6.50;99.90
25170;DHT22;13129;48.012;10.352;2023-03-12T20:51:38;6.50;99.90
25170;DHT22;13129;48.012;10.352;2023-03-12T20:54:04;6.60;99.90
25170;DHT22;13129;48.012;10.352;2023-03-12T20:56:30;6.60;99.90
25170;DHT22;13129;48.012;10.352;2023-03-12T20:58:56;6.70;99.90
25170;DHT22;13129;48.012;10.352;2023-03-12T21:01:23;6.70;99.90
25170;DHT22;13129;48.012;10.352;2023-03-12T21:03:49;6.70;99.90
25170;DHT22;13129;48.012;10.352;2023-03-12T21:06:15;6.70;99.90
25170;DHT22;13129;48.012;10.352;2023-03-12T21:08:40;6.70;99.90
25170;DHT22;13129;48.012;10.352;2023-03-12T21:11:06;6.70;99.90
25170;DHT22;13129;48.012;10.352;2023-03-12T21:13:33;6.60;99.90
25170;DHT22;13129;48.012;10.352;2023-03-12T21:15:59;6.60;99.90
25170;DHT22;13129;48.012;10.352;2023-03-12T21:18:24;6.70;99.90
25170;DHT22;13129;48.012;10.352;2023-03-12T21:20:50;6.60;99.90
25170;DHT22;13129;48.012;10.352;2023-03-12T21:23:16;6.60;99.90
25170;DHT22;13129;48.012;10.352;2023-03-12T21:25:42;6.60;99.90
25170;DHT22;13129;48.012;10.352;2023-03-12T21:28:09;6.70;99.90
25170;DHT22;13129;48.012;10.352;2023-03-12T21:30:34;6.60;99.90
25170;DHT22;13129;48.012;10.352;2023-03-12T21:33:00;6.60;99.90
25170;DHT22;13129;48.012;10.352;2023-03-12T21:35:31;6.60;99.90
25170;DHT22;13129;48.012;10.352;2023-03-12T21:37:57;6.60;99.90
25170;DHT22;13129;48.012;10.352;2023-03-12T21:40:23;6.60;99.90
25170;DHT22;13129;48.012;10.352;2023-03-12T21:42:49;6.60;99.90
25170;DHT22;13129;48.012;10.352;2023-03-12T21:45:15;6.60;99.90
25170;DHT22;13129;48.012;10.352;2023-03-12T21:47:41;6.60;99.90
25170;DHT22;13129;48.012;10.352;2023-03-12T21:50:08;6.50;99.90
25170;DHT22;13129;48.012;10.352;2023-03-12T21:52:34;6.50;99.90
25170;DHT22;13129;48.012;10.352;2023-03-12T21:55:06;6.50;99.90
25170;DHT22;13129;48.012;10.352;2023-03-12T21:57:32;6.40;99.90
25170;DHT22;13129;48.012;10.352;2023-03-12T21:59:57;6.40;99.90
25170;DHT22;13129;48.012;10.352;2023-03-12T22:02:23;6.40;99.90
25170;DHT22;13129;48.012;10.352;2023-03-12T22:04:49;6.40;99.90
25170;DHT22;13129;48.012;10.352;2023-03-12T22:07:15;6.50;99.90
25170;DHT22;13129;48.012;10.352;2023-03-12T22:09:40;6.50;99.90
25170;DHT22;13129;48.012;10.352;2023-03-12T22:12:06;6.50;99.90
25170;DHT22;13129;48.012;10.352;2023-03-12T22:14:32;6.50;99.90
25170;DHT22;13129;48.012;10.352;2023-03-12T22:17:01;6.40;99.90
25170;DHT22;13129;48.012;10.352;2023-03-12T22:19:27;6.50;99.90
25170;DHT22;13129;48.012;10.352;2023-03-12T22:21:52;6.50;99.90
25170;DHT22;13129;48.012;10.352;2023-03-12T22:24:18;6.50;99.90
25170;DHT22;13129;48.012;10.352;2023-03-12T22:26:44;6.40;99.90
25170;DHT22;13129;48.012;10.352;2023-03-12T22:29:10;6.40;99.90
25170;DHT22;13129;48.012;10.352;2023-03-12T22:31:36;6.40;99.90
25170;DHT22;13129;48.012;10.352;2023-03-12T22:34:02;6.40;99.90
25170;DHT22;13129;48.012;10.352;2023-03-12T22:36:27;6.40;99.90
25170;DHT22;13129;48.012;10.352;2023-03-12T22:38:53;6.40;99.90
25170;DHT22;13129;48.012;10.352;2023-03-12T22:41:21;6.40;99.90
25170;DHT22;13129;48.012;10.352;2023-03-12T22:43:52;6.50;99.90
25170;DHT22;13129;48.012;10.352;2023-03-12T22:46:19;6.50;99.90
25170;DHT22;13129;48.012;10.352;2023-03-12T22:48:50;6.50;99.90
25170;DHT22;13129;48.012;10.352;2023-03-12T22:51:16;6.50;99.90
25170;DHT22;13129;48.012;10.352;2023-03-12T22:53:45;6.50;99.90
25170;DHT22;13129;48.012;10.352;2023-03-12T22:56:13;6.50;99.90
25170;DHT22;13129;48.012;10.352;2023-03-12T22:58:39;6.50;99.90
25170;DHT22;13129;48.012;10.352;2023-03-12T23:01:08;6.50;99.90